createdAt,value
2023-03-28T00:00:54.843Z,20.13
2023-03-28T00:01:56.239Z,20.16
2023-03-28T00:02:57.772Z,20.18
2023-03-28T00:03:59.251Z,20.10
2023-03-28T00:05:00.734Z,20.13
2023-03-28T00:06:02.466Z,20.14
2023-03-28T00:07:04.156Z,20.13
2023-03-28T00:08:05.625Z,20.13
2023-03-28T00:09:07.033Z,20.03
2023-03-28T00:10:08.487Z,20.14
2023-03-28T00:11:09.883Z,20.00
2023-03-28T00:12:11.269Z,20.07
2023-03-28T00:13:12.661Z,20.11
2023-03-28T00:14:14.054Z,20.11
2023-03-28T00:15:15.459Z,20.02
2023-03-28T00:16:16.981Z,20.09
2023-03-28T00:17:18.382Z,20.03
2023-03-28T00:18:19.795Z,20.10
2023-03-28T00:19:21.795Z,20.02
2023-03-28T00:20:23.241Z,20.02
2023-03-28T00:21:24.705Z,20.07
2023-03-28T00:22:26.099Z,20.06
2023-03-28T00:23:27.498Z,20.02
2023-03-28T00:24:28.900Z,19.92
2023-03-28T00:25:30.290Z,20.03
2023-03-28T00:26:31.692Z,20.00
2023-03-28T00:27:33.096Z,19.92
2023-03-28T00:28:34.481Z,19.95
2023-03-28T00:29:35.877Z,19.94
2023-03-28T00:30:37.290Z,20.04
2023-03-28T00:31:39.534Z,19.92
2023-03-28T00:32:40.995Z,20.02
2023-03-28T00:33:42.389Z,19.92
2023-03-28T00:34:44.629Z,19.91
2023-03-28T00:35:46.049Z,19.96
2023-03-28T00:36:47.422Z,19.91
2023-03-28T00:37:48.872Z,19.92
2023-03-28T00:38:51.124Z,19.92
2023-03-28T00:39:52.519Z,19.95
2023-03-28T00:40:53.912Z,19.95
2023-03-28T00:41:55.360Z,20.02
2023-03-28T00:42:56.762Z,19.92
2023-03-28T00:43:58.165Z,19.96
2023-03-28T00:44:59.568Z,19.96
2023-03-28T00:46:09.169Z,19.94
2023-03-28T00:47:03.541Z,19.92
2023-03-28T00:48:05.000Z,19.94
2023-03-28T00:49:06.434Z,19.94
2023-03-28T00:50:07.825Z,19.95
2023-03-28T00:51:09.217Z,19.94
2023-03-28T00:52:10.612Z,19.94
2023-03-28T00:53:12.003Z,19.88
2023-03-28T00:54:13.453Z,19.89
2023-03-28T00:55:14.853Z,19.91
2023-03-28T00:56:16.263Z,20.03
2023-03-28T00:57:17.685Z,19.99
2023-03-28T00:58:19.108Z,19.89
2023-03-28T00:59:20.526Z,20.03
2023-03-28T01:00:21.918Z,19.89
2023-03-28T01:01:23.367Z,19.89
2023-03-28T01:02:24.878Z,19.91
2023-03-28T01:03:26.410Z,19.82
2023-03-28T01:05:29.192Z,19.86
2023-03-28T01:06:31.516Z,19.82
2023-03-28T01:07:33.765Z,19.92
2023-03-28T01:08:35.186Z,19.88
2023-03-28T01:09:37.412Z,20.00
2023-03-28T01:10:39.664Z,19.94
2023-03-28T01:11:41.868Z,19.88
2023-03-28T01:12:43.271Z,19.86
2023-03-28T01:13:45.530Z,19.94
2023-03-28T01:14:47.816Z,19.92
2023-03-28T01:15:49.233Z,19.86
2023-03-28T01:16:51.565Z,19.85
2023-03-28T01:17:53.035Z,19.89
2023-03-28T01:18:55.270Z,19.89
2023-03-28T01:19:56.668Z,19.88
2023-03-28T01:20:58.914Z,19.86
2023-03-28T01:22:01.104Z,19.85
2023-03-28T01:23:02.501Z,19.86
2023-03-28T01:24:11.372Z,19.94
2023-03-28T01:25:07.936Z,19.91
2023-03-28T01:26:10.203Z,19.92
2023-03-28T01:27:12.444Z,19.92
2023-03-28T01:28:13.842Z,19.82
2023-03-28T01:29:16.043Z,19.91
2023-03-28T01:30:18.283Z,19.86
2023-03-28T01:31:20.525Z,19.89
2023-03-28T01:32:22.816Z,19.85
2023-03-28T01:33:24.242Z,19.89
2023-03-28T01:35:41.895Z,19.86
2023-03-28T01:36:44.151Z,19.89
2023-03-28T01:37:45.546Z,19.91
2023-03-28T01:38:46.994Z,19.88
2023-03-28T01:39:48.498Z,19.84
2023-03-28T01:40:49.882Z,19.79
2023-03-28T01:41:52.121Z,19.79
2023-03-28T01:42:53.535Z,19.85
2023-03-28T01:43:54.934Z,19.88
2023-03-28T01:44:56.327Z,19.81
2023-03-28T01:45:58.756Z,19.81
2023-03-28T01:47:01.125Z,19.81
2023-03-28T01:48:03.419Z,19.84
2023-03-28T01:49:05.636Z,19.84
2023-03-28T01:50:07.831Z,19.79
2023-03-28T01:51:09.224Z,19.79
2023-03-28T01:52:10.628Z,19.81
2023-03-28T01:53:12.034Z,19.79
2023-03-28T01:54:14.266Z,19.74
2023-03-28T01:55:15.659Z,19.79
2023-03-28T01:56:17.084Z,19.84
2023-03-28T01:57:19.425Z,19.82
2023-03-28T01:58:20.911Z,19.82
2023-03-28T01:59:22.367Z,19.81
2023-03-28T02:00:23.760Z,19.81
2023-03-28T02:01:25.222Z,19.82
2023-03-28T02:02:27.613Z,19.77
2023-03-28T02:03:29.996Z,19.74
2023-03-28T02:04:32.263Z,19.79
2023-03-28T02:05:33.666Z,19.84
2023-03-28T02:06:35.904Z,19.76
2023-03-28T02:07:37.306Z,19.71
2023-03-28T02:08:38.698Z,19.84
2023-03-28T02:09:40.099Z,19.81
2023-03-28T02:10:41.493Z,19.82
2023-03-28T02:11:43.686Z,19.77
2023-03-28T02:12:45.880Z,19.82
2023-03-28T02:13:48.149Z,19.76
2023-03-28T02:14:50.336Z,19.76
2023-03-28T02:15:52.772Z,19.73
2023-03-28T02:16:55.092Z,19.71
2023-03-28T02:17:56.534Z,19.71
2023-03-28T02:18:57.937Z,19.85
2023-03-28T02:19:59.510Z,19.84
2023-03-28T02:21:01.736Z,19.84
2023-03-28T02:22:03.129Z,19.84
2023-03-28T02:23:04.518Z,19.84
2023-03-28T02:24:05.910Z,19.76
2023-03-28T02:25:07.310Z,19.81
2023-03-28T02:26:08.701Z,19.79
2023-03-28T02:27:10.903Z,19.70
2023-03-28T02:28:13.152Z,19.74
2023-03-28T02:29:15.352Z,19.71
2023-03-28T02:30:17.549Z,19.74
2023-03-28T02:31:18.954Z,19.74
2023-03-28T02:32:21.141Z,19.73
2023-03-28T02:33:23.351Z,19.73
2023-03-28T02:35:40.204Z,19.77
2023-03-28T02:36:42.454Z,19.67
2023-03-28T02:37:44.749Z,19.67
2023-03-28T02:38:46.176Z,19.73
2023-03-28T02:39:47.579Z,19.76
2023-03-28T02:40:48.981Z,19.74
2023-03-28T02:41:50.430Z,19.69
2023-03-28T02:42:51.855Z,19.67
2023-03-28T02:43:54.115Z,19.67
2023-03-28T02:44:55.526Z,19.74
2023-03-28T02:45:58.149Z,19.73
2023-03-28T02:47:01.384Z,19.73
2023-03-28T02:48:03.685Z,19.76
2023-03-28T02:49:05.069Z,19.81
2023-03-28T02:50:06.461Z,19.69
2023-03-28T02:51:08.712Z,19.73
2023-03-28T02:52:10.168Z,19.74
2023-03-28T02:53:12.522Z,19.66
2023-03-28T02:54:14.747Z,19.69
2023-03-28T02:55:16.994Z,19.76
2023-03-28T02:56:18.392Z,19.77
2023-03-28T02:57:19.831Z,19.76
2023-03-28T02:58:22.095Z,19.66
2023-03-28T02:59:24.342Z,19.79
2023-03-28T03:00:25.953Z,19.64
2023-03-28T03:01:28.161Z,19.76
2023-03-28T03:02:30.376Z,19.76
2023-03-28T03:03:32.644Z,19.77
2023-03-28T03:04:34.838Z,19.73
2023-03-28T03:05:37.071Z,19.73
2023-03-28T03:06:38.513Z,19.74
2023-03-28T03:07:40.705Z,19.76
2023-03-28T03:08:42.106Z,19.70
2023-03-28T03:09:45.453Z,19.77
2023-03-28T03:10:46.817Z,19.67
2023-03-28T03:11:48.205Z,19.69
2023-03-28T03:12:50.504Z,19.77
2023-03-28T03:13:51.896Z,19.64
2023-03-28T03:14:53.296Z,19.67
2023-03-28T03:15:54.797Z,19.66
2023-03-28T03:16:56.199Z,19.66
2023-03-28T03:17:57.649Z,19.64
2023-03-28T03:18:59.038Z,19.71
2023-03-28T03:20:00.498Z,19.66
2023-03-28T03:21:01.907Z,19.73
2023-03-28T03:22:03.309Z,19.71
2023-03-28T03:23:05.621Z,19.76
2023-03-28T03:24:07.023Z,19.70
2023-03-28T03:25:08.449Z,19.76
2023-03-28T03:26:10.700Z,19.70
2023-03-28T03:27:12.902Z,19.71
2023-03-28T03:28:14.299Z,19.71
2023-03-28T03:29:15.700Z,19.71
2023-03-28T03:30:17.882Z,19.67
2023-03-28T03:31:20.205Z,19.69
2023-03-28T03:32:21.537Z,19.67
2023-03-28T03:33:22.948Z,19.67
2023-03-28T03:34:25.184Z,19.71
2023-03-28T03:35:27.396Z,19.70
2023-03-28T03:36:28.794Z,19.67
2023-03-28T03:37:30.198Z,19.69
2023-03-28T03:38:31.632Z,19.63
2023-03-28T03:39:33.042Z,19.66
2023-03-28T03:40:35.303Z,19.69
2023-03-28T03:41:37.534Z,19.67
2023-03-28T03:42:38.995Z,19.66
2023-03-28T03:43:40.394Z,19.76
2023-03-28T03:44:42.593Z,19.66
2023-03-28T03:45:44.055Z,19.63
2023-03-28T03:46:45.542Z,19.66
2023-03-28T03:47:47.818Z,19.62
2023-03-28T03:48:50.336Z,19.71
2023-03-28T03:49:51.704Z,19.70
2023-03-28T03:50:53.955Z,19.62
2023-03-28T03:51:55.356Z,19.66
2023-03-28T03:52:56.823Z,19.66
2023-03-28T03:53:58.233Z,19.70
2023-03-28T03:55:00.427Z,19.62
2023-03-28T03:56:02.790Z,19.63
2023-03-28T03:57:05.054Z,19.62
2023-03-28T03:58:06.504Z,19.70
2023-03-28T03:59:08.751Z,19.62
2023-03-28T04:00:10.992Z,19.62
2023-03-28T04:01:12.382Z,19.63
2023-03-28T04:02:14.605Z,19.66
2023-03-28T04:03:24.249Z,19.66
2023-03-28T04:04:18.413Z,19.58
2023-03-28T04:05:20.679Z,19.62
2023-03-28T04:06:22.180Z,19.67
2023-03-28T04:07:24.384Z,19.71
2023-03-28T04:08:26.619Z,19.64
2023-03-28T04:09:28.024Z,19.66
2023-03-28T04:10:30.266Z,19.66
2023-03-28T04:11:32.457Z,19.64
2023-03-28T04:12:34.708Z,19.64
2023-03-28T04:13:36.960Z,19.58
2023-03-28T04:14:38.369Z,19.67
2023-03-28T04:15:39.802Z,19.69
2023-03-28T04:16:42.073Z,19.64
2023-03-28T04:17:44.452Z,19.64
2023-03-28T04:18:46.716Z,19.62
2023-03-28T04:19:48.106Z,19.64
2023-03-28T04:20:49.509Z,19.62
2023-03-28T04:21:51.698Z,19.67
2023-03-28T04:22:53.090Z,19.54
2023-03-28T04:23:55.295Z,19.67
2023-03-28T04:24:56.694Z,19.59
2023-03-28T04:25:59.106Z,19.58
2023-03-28T04:27:01.198Z,19.58
2023-03-28T04:28:03.395Z,19.58
2023-03-28T04:29:04.783Z,19.62
2023-03-28T04:30:07.098Z,19.63
2023-03-28T04:31:09.348Z,19.49
2023-03-28T04:32:10.751Z,19.63
2023-03-28T04:33:12.211Z,19.62
2023-03-28T04:34:13.599Z,19.56
2023-03-28T04:35:14.998Z,19.54
2023-03-28T04:36:17.201Z,19.62
2023-03-28T04:37:18.592Z,19.59
2023-03-28T04:38:21.497Z,19.69
2023-03-28T04:39:22.942Z,19.58
2023-03-28T04:40:25.041Z,19.64
2023-03-28T04:41:27.298Z,19.62
2023-03-28T04:42:28.719Z,19.64
2023-03-28T04:43:30.130Z,19.64
2023-03-28T04:44:31.529Z,19.63
2023-03-28T04:45:32.994Z,19.63
2023-03-28T04:46:35.281Z,19.59
2023-03-28T04:47:37.645Z,19.59
2023-03-28T04:48:39.966Z,19.63
2023-03-28T04:49:41.354Z,19.58
2023-03-28T04:50:43.598Z,19.64
2023-03-28T04:51:45.802Z,19.59
2023-03-28T04:52:47.193Z,19.64
2023-03-28T04:53:49.432Z,19.59
2023-03-28T04:54:51.634Z,19.58
2023-03-28T04:55:53.832Z,19.66
2023-03-28T04:56:56.223Z,19.59
2023-03-28T04:57:58.522Z,19.54
2023-03-28T04:58:59.913Z,19.56
2023-03-28T05:00:01.319Z,19.55
2023-03-28T05:01:03.038Z,19.59
2023-03-28T05:02:05.443Z,19.56
2023-03-28T05:03:06.928Z,19.56
2023-03-28T05:04:09.236Z,19.55
2023-03-28T05:05:10.720Z,19.54
2023-03-28T05:06:12.923Z,19.55
2023-03-28T05:07:14.322Z,19.58
2023-03-28T05:08:16.523Z,19.62
2023-03-28T05:09:18.782Z,19.41
2023-03-28T05:10:20.231Z,19.55
2023-03-28T05:11:22.429Z,19.51
2023-03-28T05:12:24.672Z,19.62
2023-03-28T05:13:26.867Z,19.51
2023-03-28T05:14:29.167Z,19.55
2023-03-28T05:15:30.610Z,19.55
2023-03-28T05:16:32.987Z,19.54
2023-03-28T05:17:34.440Z,19.54
2023-03-28T05:18:35.869Z,19.47
2023-03-28T05:19:37.248Z,19.55
2023-03-28T05:20:38.634Z,19.54
2023-03-28T05:21:40.039Z,19.54
2023-03-28T05:22:42.288Z,19.54
2023-03-28T05:23:44.527Z,19.44
2023-03-28T05:24:45.974Z,19.55
2023-03-28T05:25:48.215Z,19.47
2023-03-28T05:26:49.608Z,19.45
2023-03-28T05:27:51.007Z,19.44
2023-03-28T05:28:53.202Z,19.51
2023-03-28T05:29:55.436Z,19.51
2023-03-28T05:30:56.883Z,19.49
2023-03-28T05:31:59.147Z,19.45
2023-03-28T05:33:00.641Z,19.44
2023-03-28T05:34:02.875Z,19.48
2023-03-28T05:35:04.307Z,19.47
2023-03-28T05:36:05.852Z,19.47
2023-03-28T05:37:07.282Z,19.45
2023-03-28T05:38:08.675Z,19.47
2023-03-28T05:39:10.121Z,19.44
2023-03-28T05:40:12.322Z,19.48
2023-03-28T05:41:13.714Z,19.54
2023-03-28T05:42:15.965Z,19.51
2023-03-28T05:43:18.219Z,19.51
2023-03-28T05:44:19.606Z,19.49
2023-03-28T05:45:21.856Z,19.48
2023-03-28T05:46:24.078Z,19.45
2023-03-28T05:47:25.561Z,19.51
2023-03-28T05:48:26.963Z,19.47
2023-03-28T05:49:28.330Z,19.55
2023-03-28T05:50:29.725Z,19.44
2023-03-28T05:51:31.117Z,19.51
2023-03-28T05:52:32.568Z,19.49
2023-03-28T05:53:34.814Z,19.51
2023-03-28T05:54:37.003Z,19.51
2023-03-28T05:55:39.247Z,19.47
2023-03-28T05:56:40.671Z,19.47
2023-03-28T05:57:42.861Z,19.48
2023-03-28T05:58:44.257Z,19.48
2023-03-28T05:59:46.504Z,19.49
2023-03-28T06:00:47.902Z,19.48
2023-03-28T06:01:50.215Z,19.45
2023-03-28T06:02:51.611Z,19.45
2023-03-28T06:03:53.065Z,19.44
2023-03-28T06:04:55.393Z,19.49
2023-03-28T06:05:56.820Z,19.54
2023-03-28T06:06:58.216Z,19.41
2023-03-28T06:08:00.412Z,19.44
2023-03-28T06:09:02.610Z,19.45
2023-03-28T06:10:04.854Z,19.44
2023-03-28T06:11:07.097Z,19.44
2023-03-28T06:12:09.342Z,19.41
2023-03-28T06:13:11.621Z,19.47
2023-03-28T06:14:13.016Z,19.41
2023-03-28T06:15:15.210Z,19.49
2023-03-28T06:16:17.461Z,19.45
2023-03-28T06:17:18.996Z,19.54
2023-03-28T06:18:20.404Z,19.48
2023-03-28T06:19:22.679Z,19.45
2023-03-28T06:20:24.926Z,19.47
2023-03-28T06:21:26.319Z,19.45
2023-03-28T06:22:28.544Z,19.44
2023-03-28T06:23:29.950Z,19.44
2023-03-28T06:24:32.189Z,19.51
2023-03-28T06:25:34.387Z,19.47
2023-03-28T06:26:36.587Z,19.48
2023-03-28T06:27:38.778Z,19.44
2023-03-28T06:28:40.188Z,19.47
2023-03-28T06:29:42.387Z,19.44
2023-03-28T06:30:44.579Z,19.48
2023-03-28T06:31:46.850Z,19.45
2023-03-28T06:32:49.093Z,19.48
2023-03-28T06:33:50.503Z,19.48
2023-03-28T06:34:52.702Z,19.48
2023-03-28T06:35:54.957Z,19.49
2023-03-28T06:36:57.209Z,19.47
2023-03-28T06:37:58.600Z,19.45
2023-03-28T06:39:00.791Z,19.44
2023-03-28T06:40:02.320Z,19.49
2023-03-28T06:41:04.562Z,19.44
2023-03-28T06:42:05.957Z,19.44
2023-03-28T06:43:08.172Z,19.47
2023-03-28T06:44:10.400Z,19.44
2023-03-28T06:45:11.804Z,19.47
2023-03-28T06:46:13.266Z,19.45
2023-03-28T06:47:14.657Z,19.45
2023-03-28T06:48:16.900Z,19.44
2023-03-28T06:49:19.156Z,19.45
2023-03-28T06:50:20.550Z,19.48
2023-03-28T06:51:21.949Z,19.47
2023-03-28T06:52:23.364Z,19.41
2023-03-28T06:53:24.758Z,19.41
2023-03-28T06:54:27.045Z,19.45
2023-03-28T06:55:28.439Z,19.41
2023-03-28T06:56:29.845Z,19.44
2023-03-28T06:57:31.258Z,19.47
2023-03-28T06:58:33.504Z,19.45
2023-03-28T06:59:34.894Z,19.45
2023-03-28T07:00:37.096Z,19.41
2023-03-28T07:01:38.516Z,19.47
2023-03-28T07:02:40.846Z,19.40
2023-03-28T07:03:42.473Z,19.39
2023-03-28T07:04:43.872Z,19.40
2023-03-28T07:05:46.123Z,19.41
2023-03-28T07:06:48.395Z,19.40
2023-03-28T07:07:50.646Z,19.36
2023-03-28T07:08:52.049Z,19.44
2023-03-28T07:09:54.289Z,19.48
2023-03-28T07:10:56.539Z,19.47
2023-03-28T07:11:57.936Z,19.45
2023-03-28T07:12:59.393Z,19.49
2023-03-28T07:14:00.804Z,19.40
2023-03-28T07:15:03.058Z,19.45
2023-03-28T07:16:04.543Z,19.44
2023-03-28T07:17:05.945Z,19.45
2023-03-28T07:18:07.389Z,19.45
2023-03-28T07:19:08.800Z,19.41
2023-03-28T07:20:10.350Z,19.45
2023-03-28T07:21:12.595Z,19.44
2023-03-28T07:22:14.781Z,19.41
2023-03-28T07:23:16.184Z,19.44
2023-03-28T07:24:18.371Z,19.39
2023-03-28T07:25:20.613Z,19.41
2023-03-28T07:26:22.012Z,19.45
2023-03-28T07:27:25.027Z,19.39
2023-03-28T07:28:26.468Z,19.45
2023-03-28T07:29:27.857Z,19.39
2023-03-28T07:30:29.254Z,19.47
2023-03-28T07:31:30.736Z,19.45
2023-03-28T07:32:39.334Z,19.45
2023-03-28T07:33:37.391Z,19.40
2023-03-28T07:35:53.201Z,19.45
2023-03-28T07:36:54.707Z,19.44
2023-03-28T07:37:56.105Z,19.47
2023-03-28T07:38:57.504Z,19.41
2023-03-28T07:39:58.899Z,19.47
2023-03-28T07:41:00.578Z,19.41
2023-03-28T07:42:02.191Z,19.44
2023-03-28T07:43:03.587Z,19.48
2023-03-28T07:44:05.832Z,19.49
2023-03-28T07:45:07.234Z,19.41
2023-03-28T07:46:09.541Z,19.44
2023-03-28T07:47:10.988Z,19.44
2023-03-28T07:48:13.280Z,19.44
2023-03-28T07:49:14.672Z,19.41
2023-03-28T07:50:16.920Z,19.47
2023-03-28T07:51:18.314Z,19.48
2023-03-28T07:52:20.612Z,19.47
2023-03-28T07:53:22.855Z,19.45
2023-03-28T07:54:24.270Z,19.41
2023-03-28T07:55:26.519Z,19.41
2023-03-28T07:56:28.712Z,19.47
2023-03-28T07:57:30.909Z,19.44
2023-03-28T07:58:33.207Z,19.47
2023-03-28T07:59:34.748Z,19.44
2023-03-28T08:00:36.341Z,19.48
2023-03-28T08:01:38.603Z,19.47
2023-03-28T08:02:44.038Z,19.47
2023-03-28T08:03:43.207Z,19.44
2023-03-28T08:04:45.588Z,19.47
2023-03-28T08:05:47.032Z,19.45
2023-03-28T08:06:49.336Z,19.49
2023-03-28T08:07:50.727Z,19.48
2023-03-28T08:08:52.935Z,19.48
2023-03-28T08:09:56.342Z,19.48
2023-03-28T08:10:56.727Z,19.49
2023-03-28T08:11:59.015Z,19.48
2023-03-28T08:13:01.205Z,19.47
2023-03-28T08:14:03.400Z,19.51
2023-03-28T08:15:04.795Z,19.48
2023-03-28T08:16:07.124Z,19.52
2023-03-28T08:17:08.520Z,19.48
2023-03-28T08:18:10.750Z,19.48
2023-03-28T08:19:12.278Z,19.47
2023-03-28T08:20:14.492Z,19.44
2023-03-28T08:21:16.734Z,19.41
2023-03-28T08:22:18.982Z,19.44
2023-03-28T08:23:21.233Z,19.48
2023-03-28T08:24:34.933Z,19.55
2023-03-28T08:25:25.864Z,19.51
2023-03-28T08:26:28.070Z,19.47
2023-03-28T08:27:29.467Z,19.45
2023-03-28T08:28:31.662Z,19.49
2023-03-28T08:29:33.864Z,19.49
2023-03-28T08:30:35.282Z,19.44
2023-03-28T08:31:36.735Z,19.45
2023-03-28T08:32:38.994Z,19.41
2023-03-28T08:33:41.191Z,19.44
2023-03-28T08:34:42.584Z,19.47
2023-03-28T08:35:44.044Z,19.45
2023-03-28T08:36:45.454Z,19.44
2023-03-28T08:37:47.778Z,19.48
2023-03-28T08:38:50.032Z,19.44
2023-03-28T08:39:51.441Z,19.45
2023-03-28T08:40:52.834Z,19.47
2023-03-28T08:41:54.269Z,19.44
2023-03-28T08:42:56.467Z,19.47
2023-03-28T08:43:58.717Z,19.49
2023-03-28T08:45:00.981Z,19.48
2023-03-28T08:46:02.434Z,19.44
2023-03-28T08:47:03.853Z,19.47
2023-03-28T08:48:05.399Z,19.44
2023-03-28T08:49:07.658Z,19.52
2023-03-28T08:50:12.287Z,19.47
2023-03-28T08:51:12.278Z,19.49
2023-03-28T08:52:13.676Z,19.51
2023-03-28T08:53:15.080Z,19.48
2023-03-28T08:54:17.380Z,19.47
2023-03-28T08:55:18.777Z,19.49
2023-03-28T08:56:20.976Z,19.51
2023-03-28T08:57:22.427Z,19.45
2023-03-28T08:58:24.620Z,19.49
2023-03-28T08:59:26.027Z,19.41
2023-03-28T09:00:28.218Z,19.47
2023-03-28T09:01:30.504Z,19.45
2023-03-28T09:02:32.976Z,19.49
2023-03-28T09:03:35.429Z,19.51
2023-03-28T09:05:53.112Z,19.48
2023-03-28T09:06:54.493Z,19.56
2023-03-28T09:07:56.694Z,19.58
2023-03-28T09:08:58.975Z,19.49
2023-03-28T09:10:01.213Z,19.62
2023-03-28T09:11:02.732Z,19.58
2023-03-28T09:12:04.233Z,19.55
2023-03-28T09:13:05.636Z,19.54
2023-03-28T09:14:07.826Z,19.56
2023-03-28T09:15:09.227Z,19.55
2023-03-28T09:16:10.673Z,19.52
2023-03-28T09:17:12.990Z,19.47
2023-03-28T09:18:15.309Z,19.56
2023-03-28T09:19:16.726Z,19.58
2023-03-28T09:20:18.137Z,19.56
2023-03-28T09:21:20.325Z,19.55
2023-03-28T09:22:21.923Z,19.54
2023-03-28T09:23:23.319Z,19.63
2023-03-28T09:24:24.741Z,19.64
2023-03-28T09:25:27.076Z,19.63
2023-03-28T09:26:29.270Z,19.59
2023-03-28T09:27:30.848Z,19.52
2023-03-28T09:28:32.254Z,19.58
2023-03-28T09:29:34.554Z,19.55
2023-03-28T09:30:36.859Z,19.54
2023-03-28T09:31:39.198Z,19.54
2023-03-28T09:32:41.499Z,19.56
2023-03-28T09:33:43.006Z,19.59
2023-03-28T09:34:44.419Z,19.59
2023-03-28T09:35:46.744Z,19.55
2023-03-28T09:36:49.610Z,19.69
2023-03-28T09:37:50.956Z,19.59
2023-03-28T09:38:52.353Z,19.64
2023-03-28T09:39:53.826Z,19.59
2023-03-28T09:40:56.032Z,19.67
2023-03-28T09:41:57.428Z,19.62
2023-03-28T09:42:59.672Z,19.63
2023-03-28T09:44:01.077Z,19.69
2023-03-28T09:45:03.329Z,19.63
2023-03-28T09:46:04.838Z,19.67
2023-03-28T09:47:07.078Z,19.67
2023-03-28T09:48:08.537Z,19.63
2023-03-28T09:49:10.001Z,19.64
2023-03-28T09:50:13.306Z,19.63
2023-03-28T09:51:13.788Z,19.67
2023-03-28T09:52:15.986Z,19.67
2023-03-28T09:53:18.241Z,19.76
2023-03-28T09:54:20.486Z,19.69
2023-03-28T09:55:22.045Z,19.71
2023-03-28T09:56:24.221Z,19.73
2023-03-28T09:57:25.664Z,19.73
2023-03-28T09:58:27.876Z,19.66
2023-03-28T09:59:30.134Z,19.64
2023-03-28T10:00:32.374Z,19.67
2023-03-28T10:01:34.665Z,19.70
2023-03-28T10:02:36.124Z,19.76
2023-03-28T10:03:37.555Z,19.69
2023-03-28T10:04:39.139Z,19.70
2023-03-28T10:05:40.845Z,19.66
2023-03-28T10:06:43.163Z,19.77
2023-03-28T10:07:45.436Z,19.76
2023-03-28T10:08:47.737Z,19.77
2023-03-28T10:09:49.991Z,19.67
2023-03-28T10:10:53.709Z,19.69
2023-03-28T10:11:54.757Z,19.77
2023-03-28T10:12:57.039Z,19.70
2023-03-28T10:13:59.296Z,19.70
2023-03-28T10:15:01.556Z,19.74
2023-03-28T10:16:03.886Z,19.70
2023-03-28T10:17:05.306Z,19.70
2023-03-28T10:18:06.732Z,19.67
2023-03-28T10:19:08.157Z,19.66
2023-03-28T10:20:09.559Z,19.73
2023-03-28T10:21:11.009Z,19.77
2023-03-28T10:22:13.260Z,19.77
2023-03-28T10:23:15.510Z,19.74
2023-03-28T10:24:17.703Z,19.74
2023-03-28T10:25:19.105Z,19.77
2023-03-28T10:26:21.297Z,19.74
2023-03-28T10:27:23.486Z,19.73
2023-03-28T10:28:24.876Z,19.76
2023-03-28T10:29:26.270Z,19.73
2023-03-28T10:30:28.568Z,19.76
2023-03-28T10:31:29.986Z,19.67
2023-03-28T10:32:31.504Z,19.77
2023-03-28T10:33:33.859Z,19.71
2023-03-28T10:34:36.090Z,19.66
2023-03-28T10:35:37.540Z,19.77
2023-03-28T10:36:38.945Z,19.73
2023-03-28T10:37:41.143Z,19.79
2023-03-28T10:38:43.406Z,19.76
2023-03-28T10:39:44.795Z,19.77
2023-03-28T10:40:47.063Z,19.70
2023-03-28T10:41:49.341Z,19.79
2023-03-28T10:42:50.817Z,19.73
2023-03-28T10:43:53.112Z,19.77
2023-03-28T10:44:55.374Z,19.73
2023-03-28T10:45:57.610Z,19.79
2023-03-28T10:46:59.872Z,19.82
2023-03-28T10:48:02.137Z,19.77
2023-03-28T10:49:04.434Z,19.71
2023-03-28T10:50:05.827Z,19.74
2023-03-28T10:51:08.074Z,19.74
2023-03-28T10:52:09.477Z,19.71
2023-03-28T10:53:10.899Z,19.76
2023-03-28T10:54:12.297Z,19.73
2023-03-28T10:55:13.712Z,19.84
2023-03-28T10:56:15.950Z,19.74
2023-03-28T10:57:17.456Z,19.76
2023-03-28T10:58:19.720Z,19.81
2023-03-28T10:59:21.090Z,19.73
2023-03-28T11:00:23.358Z,19.85
2023-03-28T11:01:25.716Z,19.77
2023-03-28T11:02:27.237Z,19.79
2023-03-28T11:03:29.724Z,19.85
2023-03-28T11:04:31.158Z,19.73
2023-03-28T11:05:32.625Z,19.77
2023-03-28T11:06:34.026Z,19.81
2023-03-28T11:07:35.426Z,19.79
2023-03-28T11:08:37.678Z,19.76
2023-03-28T11:09:39.151Z,19.77
2023-03-28T11:10:41.359Z,19.76
2023-03-28T11:11:42.753Z,19.79
2023-03-28T11:13:47.331Z,19.84
2023-03-28T11:14:49.584Z,19.79
2023-03-28T11:15:51.052Z,19.74
2023-03-28T11:16:53.320Z,19.79
2023-03-28T11:17:54.830Z,19.77
2023-03-28T11:18:57.167Z,19.77
2023-03-28T11:19:59.410Z,19.79
2023-03-28T11:21:00.923Z,19.82
2023-03-28T11:22:03.384Z,19.77
2023-03-28T11:23:06.374Z,19.76
2023-03-28T11:24:07.967Z,19.84
2023-03-28T11:25:09.369Z,19.79
2023-03-28T11:26:10.764Z,19.76
2023-03-28T11:27:16.083Z,19.81
2023-03-28T11:28:15.407Z,19.82
2023-03-28T11:29:17.648Z,19.73
2023-03-28T11:31:20.721Z,19.81
2023-03-28T11:32:22.996Z,19.81
2023-03-28T11:33:24.476Z,19.73
2023-03-28T11:34:25.887Z,19.77
2023-03-28T11:35:28.120Z,19.79
2023-03-28T11:36:29.512Z,19.81
2023-03-28T11:37:31.711Z,19.79
2023-03-28T11:38:33.095Z,19.74
2023-03-28T11:39:35.337Z,19.79
2023-03-28T11:40:37.630Z,19.81
2023-03-28T11:41:39.179Z,19.81
2023-03-28T11:42:41.433Z,19.79
2023-03-28T11:43:43.625Z,19.81
2023-03-28T11:44:45.083Z,19.81
2023-03-28T11:45:52.170Z,19.79
2023-03-28T11:46:49.795Z,19.77
2023-03-28T11:47:52.141Z,19.81
2023-03-28T11:48:53.542Z,19.81
2023-03-28T11:49:55.739Z,19.76
2023-03-28T11:50:58.141Z,19.79
2023-03-28T11:51:59.667Z,19.82
2023-03-28T11:53:01.866Z,19.81
2023-03-28T11:54:03.310Z,19.76
2023-03-28T11:55:05.519Z,19.81
2023-03-28T11:56:07.724Z,19.74
2023-03-28T11:57:09.170Z,19.81
2023-03-28T11:58:10.582Z,19.82
2023-03-28T11:59:12.820Z,19.82
2023-03-28T12:00:32.105Z,19.79
2023-03-28T12:01:17.484Z,19.79
2023-03-28T12:02:18.891Z,19.85
2023-03-28T12:03:21.263Z,19.76
2023-03-28T12:04:23.602Z,19.81
2023-03-28T12:05:25.839Z,19.81
2023-03-28T12:06:27.236Z,19.84
2023-03-28T12:07:28.685Z,19.86
2023-03-28T12:08:30.927Z,19.77
2023-03-28T12:09:32.331Z,19.84
2023-03-28T12:10:33.733Z,19.85
2023-03-28T12:11:36.886Z,19.77
2023-03-28T12:12:38.359Z,19.86
2023-03-28T12:13:45.592Z,19.89
2023-03-28T12:14:42.155Z,19.77
2023-03-28T12:15:43.547Z,19.79
2023-03-28T12:16:45.890Z,19.84
2023-03-28T12:17:47.331Z,19.82
2023-03-28T12:18:49.526Z,19.85
2023-03-28T12:19:51.727Z,19.77
2023-03-28T12:20:53.122Z,19.79
2023-03-28T12:21:55.435Z,19.89
2023-03-28T12:22:57.634Z,19.89
2023-03-28T12:23:59.881Z,19.85
2023-03-28T12:25:01.281Z,19.84
2023-03-28T12:26:02.673Z,19.85
2023-03-28T12:27:04.870Z,19.86
2023-03-28T12:28:06.268Z,19.84
2023-03-28T12:29:08.481Z,19.88
2023-03-28T12:30:09.958Z,19.86
2023-03-28T12:31:12.274Z,19.85
2023-03-28T12:32:13.887Z,19.81
2023-03-28T12:33:15.400Z,19.86
2023-03-28T12:34:17.622Z,19.82
2023-03-28T12:35:19.870Z,19.84
2023-03-28T12:36:21.331Z,19.86
2023-03-28T12:37:23.577Z,19.91
2023-03-28T12:38:25.032Z,19.88
2023-03-28T12:39:27.225Z,19.86
2023-03-28T12:40:29.469Z,19.89
2023-03-28T12:41:31.672Z,19.88
2023-03-28T12:42:33.069Z,19.85
2023-03-28T12:43:34.460Z,19.86
2023-03-28T12:44:36.656Z,19.85
2023-03-28T12:45:38.860Z,19.85
2023-03-28T12:46:41.100Z,19.76
2023-03-28T12:47:43.360Z,19.85
2023-03-28T12:48:45.599Z,19.85
2023-03-28T12:49:47.815Z,19.88
2023-03-28T12:50:49.227Z,19.88
2023-03-28T12:51:50.632Z,19.88
2023-03-28T12:52:52.828Z,19.84
2023-03-28T12:53:55.036Z,19.85
2023-03-28T12:54:58.240Z,19.89
2023-03-28T12:55:59.092Z,19.84
2023-03-28T12:57:00.581Z,19.85
2023-03-28T12:58:01.974Z,19.89
2023-03-28T12:59:03.371Z,19.85
2023-03-28T13:00:04.770Z,19.85
2023-03-28T13:01:06.242Z,19.91
2023-03-28T13:02:08.436Z,19.88
2023-03-28T13:03:10.734Z,19.91
2023-03-28T13:04:13.011Z,19.84
2023-03-28T13:05:16.105Z,19.94
2023-03-28T13:06:17.605Z,19.82
2023-03-28T13:07:19.860Z,19.81
2023-03-28T13:08:23.710Z,19.85
2023-03-28T13:09:24.436Z,19.84
2023-03-28T13:10:25.836Z,19.85
2023-03-28T13:11:27.301Z,19.88
2023-03-28T13:12:28.696Z,19.89
2023-03-28T13:13:30.940Z,19.79
2023-03-28T13:14:32.339Z,19.85
2023-03-28T13:15:33.808Z,19.86
2023-03-28T13:16:35.243Z,19.88
2023-03-28T13:17:36.655Z,19.85
2023-03-28T13:18:38.067Z,19.85
2023-03-28T13:19:40.320Z,19.91
2023-03-28T13:20:41.809Z,19.88
2023-03-28T13:21:43.272Z,19.91
2023-03-28T13:22:45.518Z,19.91
2023-03-28T13:23:46.916Z,19.84
2023-03-28T13:24:48.462Z,19.85